createdAt,value
2022-08-26T00:01:52.503Z,61.18
2022-08-26T00:04:21.776Z,61.70
2022-08-26T00:06:49.327Z,62.13
2022-08-26T00:09:16.931Z,62.98
2022-08-26T00:11:44.755Z,65.66
2022-08-26T00:14:13.770Z,66.73
2022-08-26T00:16:47.138Z,66.90
2022-08-26T00:19:16.418Z,67.39
2022-08-26T00:21:44.335Z,67.42
2022-08-26T00:24:13.103Z,67.20
2022-08-26T00:26:41.353Z,67.32
2022-08-26T00:29:09.451Z,67.02
2022-08-26T00:31:37.344Z,66.91
2022-08-26T00:34:06.202Z,67.26
2022-08-26T00:36:33.695Z,67.13
2022-08-26T00:39:01.186Z,67.45
2022-08-26T00:41:29.412Z,68.34
2022-08-26T00:43:57.428Z,68.62
2022-08-26T00:46:29.705Z,68.76
2022-08-26T00:49:03.752Z,69.82
2022-08-26T00:51:32.736Z,70.35
2022-08-26T00:54:03.607Z,71.21
2022-08-26T00:56:37.436Z,71.96
2022-08-26T00:59:08.860Z,72.15
2022-08-26T01:01:38.405Z,72.99
2022-08-26T01:04:06.603Z,74.14
2022-08-26T01:06:35.945Z,76.67
2022-08-26T01:09:03.483Z,77.66
2022-08-26T01:11:31.931Z,78.17
2022-08-26T01:14:03.304Z,79.82
2022-08-26T01:16:33.058Z,78.48
2022-08-26T01:19:06.383Z,78.13
2022-08-26T01:21:40.557Z,79.07
2022-08-26T01:24:11.643Z,79.93
2022-08-26T01:26:44.604Z,80.23
2022-08-26T01:29:15.688Z,79.91
2022-08-26T01:31:47.089Z,81.40
2022-08-26T01:34:19.707Z,82.04
2022-08-26T01:36:51.615Z,82.68
2022-08-26T01:39:21.069Z,82.96
2022-08-26T01:41:53.668Z,83.11
2022-08-26T01:44:27.483Z,83.67
2022-08-26T01:46:56.266Z,84.10
2022-08-26T01:49:26.261Z,84.96
2022-08-26T01:51:55.865Z,85.09
2022-08-26T01:54:25.682Z,84.39
2022-08-26T01:56:55.787Z,84.49
2022-08-26T01:59:25.087Z,84.79
2022-08-26T02:01:53.314Z,85.60
2022-08-26T02:04:24.312Z,85.17
2022-08-26T02:06:52.731Z,84.97
2022-08-26T02:09:21.208Z,85.08
2022-08-26T02:11:51.213Z,85.32
2022-08-26T02:14:22.260Z,85.44
2022-08-26T02:16:53.160Z,85.80
2022-08-26T02:19:23.931Z,86.25
2022-08-26T02:21:53.617Z,87.50
2022-08-26T02:24:24.644Z,87.88
2022-08-26T02:26:58.255Z,88.53
2022-08-26T02:29:29.923Z,88.20
2022-08-26T02:31:58.924Z,88.44
2022-08-26T02:34:31.405Z,88.32
2022-08-26T02:37:00.527Z,88.54
2022-08-26T02:39:29.324Z,88.54
2022-08-26T02:41:59.114Z,88.53
2022-08-26T02:44:27.157Z,88.58
2022-08-26T02:46:55.043Z,88.97
2022-08-26T02:49:24.473Z,88.82
2022-08-26T02:51:52.551Z,88.83
2022-08-26T02:54:21.628Z,89.06
2022-08-26T02:56:50.670Z,89.12
2022-08-26T02:59:19.530Z,89.88
2022-08-26T03:01:52.064Z,89.94
2022-08-26T03:04:19.702Z,90.33
2022-08-26T03:06:52.713Z,89.95
2022-08-26T03:09:20.613Z,89.35
2022-08-26T03:11:48.174Z,88.98
2022-08-26T03:14:16.675Z,88.77
2022-08-26T03:16:48.380Z,88.74
2022-08-26T03:19:17.510Z,89.16
2022-08-26T03:21:47.197Z,88.48
2022-08-26T03:24:17.092Z,88.68
2022-08-26T03:26:52.011Z,88.86
2022-08-26T03:29:38.135Z,88.54
2022-08-26T03:32:08.266Z,88.63
2022-08-26T03:34:37.112Z,88.89
2022-08-26T03:37:06.289Z,88.76
2022-08-26T03:39:33.785Z,88.84
2022-08-26T03:42:01.707Z,88.64
2022-08-26T03:44:29.580Z,88.54
2022-08-26T03:46:57.036Z,88.49
2022-08-26T03:49:25.880Z,88.04
2022-08-26T03:51:56.528Z,88.13
2022-08-26T03:54:24.311Z,88.23
2022-08-26T03:56:51.748Z,88.00
2022-08-26T03:59:19.322Z,88.00
2022-08-26T04:01:46.834Z,87.80
2022-08-26T04:04:16.971Z,87.68
2022-08-26T04:06:45.916Z,87.55
2022-08-26T04:09:15.284Z,87.72
2022-08-26T04:11:44.386Z,87.50
2022-08-26T04:14:14.132Z,87.20
2022-08-26T04:16:45.777Z,87.30
2022-08-26T04:19:15.288Z,87.19
2022-08-26T04:21:44.036Z,87.23
2022-08-26T04:24:15.719Z,87.62
2022-08-26T04:26:44.404Z,87.61
2022-08-26T04:29:14.231Z,87.69
2022-08-26T04:31:41.900Z,87.76
2022-08-26T04:34:11.085Z,87.65
2022-08-26T04:36:39.098Z,87.92
2022-08-26T04:39:06.696Z,88.04
2022-08-26T04:41:35.516Z,88.32
2022-08-26T04:44:04.680Z,88.20
2022-08-26T04:46:32.207Z,87.85
2022-08-26T04:49:00.051Z,87.39
2022-08-26T04:51:28.460Z,87.40
2022-08-26T04:53:57.040Z,87.53
2022-08-26T04:56:26.147Z,87.19
2022-08-26T04:58:55.158Z,87.04
2022-08-26T05:01:23.878Z,86.81
2022-08-26T05:03:51.688Z,87.37
2022-08-26T05:06:20.472Z,87.45
2022-08-26T05:08:49.564Z,87.75
2022-08-26T05:11:17.100Z,87.52
2022-08-26T05:13:45.856Z,87.71
2022-08-26T05:16:16.992Z,87.06
2022-08-26T05:18:45.587Z,86.55
2022-08-26T05:21:19.888Z,87.12
2022-08-26T05:23:47.771Z,86.88
2022-08-26T05:26:17.007Z,86.60
2022-08-26T05:28:50.387Z,86.51
2022-08-26T05:31:26.168Z,85.63
2022-08-26T05:33:53.854Z,87.10
2022-08-26T05:36:23.524Z,86.72
2022-08-26T05:38:54.458Z,86.90
2022-08-26T05:41:24.889Z,86.35
2022-08-26T05:43:52.929Z,86.12
2022-08-26T05:46:20.683Z,86.75
2022-08-26T05:48:51.511Z,87.63
2022-08-26T05:51:25.402Z,86.94
2022-08-26T05:53:54.377Z,86.47
2022-08-26T05:56:24.806Z,86.67
2022-08-26T05:58:52.839Z,86.47
2022-08-26T06:01:24.162Z,87.05
2022-08-26T06:03:55.620Z,87.18
2022-08-26T06:06:27.802Z,86.80
2022-08-26T06:08:59.339Z,86.37
2022-08-26T06:11:29.681Z,86.43
2022-08-26T06:14:03.119Z,87.06
2022-08-26T06:16:33.404Z,86.78
2022-08-26T06:19:10.433Z,86.54
2022-08-26T06:21:41.324Z,86.51
2022-08-26T06:24:30.067Z,86.40
2022-08-26T06:27:01.417Z,86.60
2022-08-26T06:29:30.766Z,86.51
2022-08-26T06:31:58.900Z,86.47
2022-08-26T06:34:30.423Z,86.08
2022-08-26T06:36:59.511Z,86.07
2022-08-26T06:39:27.046Z,85.67
2022-08-26T06:41:58.803Z,85.72
2022-08-26T06:44:26.685Z,86.08
2022-08-26T06:46:54.623Z,86.69
2022-08-26T06:49:26.974Z,86.75
2022-08-26T06:51:57.939Z,87.36
2022-08-26T06:54:25.675Z,86.23
2022-08-26T06:56:53.544Z,85.89
2022-08-26T06:59:21.690Z,84.97
2022-08-26T07:01:49.786Z,85.30
2022-08-26T07:04:21.931Z,85.03
2022-08-26T07:06:52.495Z,85.42
2022-08-26T07:09:23.549Z,85.18
2022-08-26T07:11:52.155Z,85.87
2022-08-26T07:14:21.421Z,86.53
2022-08-26T07:16:49.688Z,85.88
2022-08-26T07:19:18.633Z,85.03
2022-08-26T07:21:58.304Z,84.64
2022-08-26T07:24:28.624Z,83.83
2022-08-26T07:27:00.095Z,84.38
2022-08-26T07:29:28.590Z,83.74
2022-08-26T07:31:56.312Z,83.87
2022-08-26T07:34:24.985Z,83.73
2022-08-26T07:36:53.963Z,83.15
2022-08-26T07:39:23.308Z,82.88
2022-08-26T07:41:52.415Z,82.76
2022-08-26T07:44:20.909Z,83.32
2022-08-26T07:46:53.326Z,82.73
2022-08-26T07:49:21.636Z,82.55
2022-08-26T07:51:49.726Z,83.34
2022-08-26T07:54:17.676Z,83.38
2022-08-26T07:56:47.414Z,82.75
2022-08-26T07:59:17.911Z,82.17
2022-08-26T08:01:46.182Z,81.83
2022-08-26T08:04:14.392Z,82.81
2022-08-26T08:06:44.002Z,83.51
2022-08-26T08:09:11.979Z,83.52
2022-08-26T08:11:39.615Z,83.96
2022-08-26T08:14:08.473Z,83.33
2022-08-26T08:16:45.982Z,84.10
2022-08-26T08:19:14.723Z,85.01
2022-08-26T08:21:42.760Z,84.90
2022-08-26T08:24:11.940Z,85.85
2022-08-26T08:26:39.889Z,84.50
2022-08-26T08:29:08.739Z,84.61
2022-08-26T08:34:27.220Z,83.70
2022-08-26T08:36:54.924Z,83.37
2022-08-26T08:39:22.704Z,83.07
2022-08-26T08:42:04.192Z,82.60
2022-08-26T08:44:32.006Z,82.86
2022-08-26T08:47:04.744Z,82.17
2022-08-26T08:49:35.472Z,82.45
2022-08-26T08:52:10.675Z,82.68
2022-08-26T08:54:39.679Z,82.66
2022-08-26T08:57:13.665Z,82.65
2022-08-26T08:59:50.832Z,81.25
2022-08-26T09:02:28.192Z,81.35
2022-08-26T09:05:08.781Z,81.85
2022-08-26T09:07:46.966Z,81.44
2022-08-26T09:10:27.200Z,81.15
2022-08-26T09:12:54.927Z,81.71
2022-08-26T09:15:30.218Z,81.49
2022-08-26T09:18:07.173Z,82.70
2022-08-26T09:20:49.352Z,81.79
2022-08-26T09:23:19.070Z,81.34
2022-08-26T09:25:49.242Z,81.62
2022-08-26T09:28:19.894Z,81.93
2022-08-26T09:30:59.173Z,81.56
2022-08-26T09:33:29.964Z,82.08
2022-08-26T09:38:53.832Z,81.65
2022-08-26T09:41:31.486Z,81.95
2022-08-26T09:44:14.559Z,81.78
2022-08-26T09:46:47.316Z,81.60
2022-08-26T09:49:29.853Z,81.32
2022-08-26T09:52:10.264Z,80.90
2022-08-26T09:54:39.614Z,80.43
2022-08-26T09:57:23.116Z,81.31
2022-08-26T09:59:50.957Z,80.61
2022-08-26T10:02:38.595Z,80.29
2022-08-26T10:05:10.674Z,81.00
2022-08-26T10:07:43.404Z,80.54
2022-08-26T10:10:18.335Z,80.53
2022-08-26T10:12:52.520Z,80.44
2022-08-26T10:15:22.443Z,80.41
2022-08-26T10:17:54.393Z,81.57
2022-08-26T10:20:26.595Z,81.09
2022-08-26T10:23:00.239Z,80.80
2022-08-26T10:25:33.620Z,80.60
2022-08-26T10:28:08.892Z,81.67
2022-08-26T10:30:42.840Z,80.55
2022-08-26T10:33:13.146Z,80.18
2022-08-26T10:35:47.651Z,80.97
2022-08-26T10:38:19.412Z,81.21
2022-08-26T10:40:56.124Z,82.10
2022-08-26T10:43:27.391Z,81.95
2022-08-26T10:46:00.062Z,81.78
2022-08-26T10:48:36.060Z,82.20
2022-08-26T10:51:04.360Z,81.86
2022-08-26T10:53:46.104Z,80.92
2022-08-26T10:56:30.554Z,80.84
2022-08-26T10:59:05.301Z,80.42
2022-08-26T11:01:47.186Z,80.96
2022-08-26T11:04:37.659Z,80.40
2022-08-26T11:07:31.693Z,81.41
2022-08-26T11:10:01.291Z,81.06
2022-08-26T11:12:51.461Z,81.17
2022-08-26T11:15:58.475Z,81.01
2022-08-26T11:18:48.756Z,81.09
2022-08-26T11:21:50.915Z,81.53
2022-08-26T11:25:11.547Z,81.64
2022-08-26T11:28:05.117Z,81.93
2022-08-26T11:30:45.373Z,82.79
2022-08-26T11:33:46.572Z,83.94
2022-08-26T11:36:34.754Z,83.22
2022-08-26T11:39:03.049Z,82.81
2022-08-26T11:41:31.805Z,82.27
2022-08-26T11:44:02.219Z,82.19
2022-08-26T11:46:37.230Z,82.73
2022-08-26T11:49:07.049Z,83.00
2022-08-26T11:51:40.430Z,83.98
2022-08-26T11:54:11.483Z,84.17
2022-08-26T11:56:41.895Z,85.19
2022-08-26T11:59:12.755Z,85.65
2022-08-26T12:01:44.289Z,85.82
2022-08-26T12:04:18.295Z,84.87
2022-08-26T12:06:48.812Z,83.78
2022-08-26T12:09:23.571Z,83.21
2022-08-26T12:11:51.619Z,84.45
2022-08-26T12:14:24.175Z,83.60
2022-08-26T12:16:53.948Z,83.65
2022-08-26T12:19:27.410Z,83.55
2022-08-26T12:21:59.368Z,83.55
2022-08-26T12:24:27.102Z,83.82
2022-08-26T12:27:11.727Z,84.24
2022-08-26T12:29:43.218Z,84.11
2022-08-26T12:32:19.218Z,84.30
2022-08-26T12:34:48.884Z,85.15
2022-08-26T12:37:16.819Z,84.65
2022-08-26T12:39:47.833Z,84.58
2022-08-26T12:42:42.036Z,84.76
2022-08-26T12:45:11.429Z,84.56
2022-08-26T12:47:43.545Z,84.78
2022-08-26T12:50:19.838Z,84.48
2022-08-26T12:52:57.106Z,84.33
2022-08-26T12:55:27.808Z,85.02
2022-08-26T12:58:11.767Z,83.98
2022-08-26T13:00:42.309Z,83.46
2022-08-26T13:03:45.943Z,82.85
2022-08-26T13:06:18.087Z,82.74
2022-08-26T13:08:47.514Z,82.83
2022-08-26T13:11:20.244Z,82.46
2022-08-26T13:13:51.600Z,82.22
2022-08-26T13:16:21.597Z,82.47
2022-08-26T13:18:51.009Z,83.51
2022-08-26T13:21:20.894Z,83.52
2022-08-26T13:23:49.453Z,83.96
2022-08-26T13:26:17.015Z,82.74
2022-08-26T13:28:44.641Z,82.36
2022-08-26T13:31:16.839Z,82.47
2022-08-26T13:33:48.310Z,82.47
2022-08-26T13:36:16.868Z,82.67
2022-08-26T13:38:44.327Z,83.21
2022-08-26T13:41:17.024Z,82.93
2022-08-26T13:43:51.067Z,83.10
2022-08-26T13:46:20.109Z,83.02
2022-08-26T13:48:48.942Z,82.75
2022-08-26T13:51:18.436Z,81.53
2022-08-26T13:53:45.904Z,81.45
2022-08-26T13:56:13.334Z,81.55
2022-08-26T13:58:41.337Z,81.46
2022-08-26T14:01:09.738Z,81.81
2022-08-26T14:03:37.596Z,82.13
2022-08-26T14:06:06.543Z,81.74
2022-08-26T14:08:34.089Z,81.66
2022-08-26T14:11:01.615Z,80.86
2022-08-26T14:13:29.249Z,80.74
2022-08-26T14:15:58.629Z,80.36
2022-08-26T14:18:31.069Z,80.41
2022-08-26T14:20:59.363Z,79.31
2022-08-26T14:23:28.434Z,79.46
2022-08-26T14:25:55.921Z,80.12
2022-08-26T14:28:23.395Z,79.47
2022-08-26T14:30:54.104Z,79.25
2022-08-26T14:33:25.919Z,78.86
2022-08-26T14:36:13.846Z,79.68
2022-08-26T14:38:42.640Z,79.92
2022-08-26T14:41:10.887Z,79.79
2022-08-26T14:43:49.892Z,78.90
2022-08-26T14:46:18.787Z,78.53
2022-08-26T14:48:46.515Z,78.98
2022-08-26T14:51:13.967Z,78.94
2022-08-26T14:54:02.799Z,78.85
2022-08-26T14:56:32.091Z,77.71
2022-08-26T14:58:59.550Z,77.82
2022-08-26T15:01:30.839Z,77.65
2022-08-26T15:03:59.001Z,77.35
2022-08-26T15:06:26.708Z,77.33
2022-08-26T15:08:55.546Z,77.90
2022-08-26T15:11:23.300Z,77.94
2022-08-26T15:13:50.789Z,77.81
2022-08-26T15:16:18.312Z,76.37
2022-08-26T15:18:45.828Z,76.03
2022-08-26T15:21:13.329Z,76.30
2022-08-26T15:23:41.528Z,76.28
2022-08-26T15:26:17.060Z,76.41
2022-08-26T15:28:45.355Z,76.41
2022-08-26T15:31:13.042Z,76.69
2022-08-26T15:33:40.656Z,77.03
2022-08-26T15:36:09.560Z,77.54
2022-08-26T15:38:41.160Z,77.01
2022-08-26T15:41:09.275Z,76.82
2022-08-26T15:43:38.994Z,76.61
2022-08-26T15:46:11.425Z,77.18
2022-08-26T15:48:39.388Z,76.56
2022-08-26T15:51:08.350Z,77.26
2022-08-26T15:53:36.104Z,77.22
2022-08-26T15:56:04.187Z,76.59
2022-08-26T15:58:31.633Z,77.53
2022-08-26T16:01:00.979Z,76.90
2022-08-26T16:03:28.425Z,76.90
2022-08-26T16:05:56.053Z,77.09
2022-08-26T16:08:23.566Z,77.02
2022-08-26T16:10:51.761Z,77.12
2022-08-26T16:13:20.809Z,77.04
2022-08-26T16:15:48.651Z,77.54
2022-08-26T16:18:17.800Z,77.79
2022-08-26T16:21:12.311Z,77.72
2022-08-26T16:23:39.694Z,78.56
2022-08-26T16:26:10.505Z,78.06
2022-08-26T16:28:38.648Z,78.06
2022-08-26T16:31:06.574Z,78.20
2022-08-26T16:33:35.384Z,77.74
2022-08-26T16:36:03.170Z,77.38
2022-08-26T16:38:30.642Z,77.95
2022-08-26T16:40:59.428Z,78.23
2022-08-26T16:43:26.920Z,78.62
2022-08-26T16:45:54.707Z,78.42
2022-08-26T16:48:23.281Z,78.31
2022-08-26T16:50:55.203Z,78.04
2022-08-26T16:53:22.885Z,77.78
2022-08-26T16:55:51.493Z,77.88
2022-08-26T16:58:22.005Z,78.66
2022-08-26T17:00:50.479Z,78.63
2022-08-26T17:03:18.220Z,79.37
2022-08-26T17:05:45.674Z,79.67
2022-08-26T17:08:17.447Z,79.19
2022-08-26T17:10:56.699Z,79.21
2022-08-26T17:13:35.596Z,79.62
2022-08-26T17:16:04.970Z,79.62
2022-08-26T17:18:33.312Z,79.83
2022-08-26T17:21:02.405Z,80.20
2022-08-26T17:23:31.191Z,79.76
2022-08-26T17:25:58.690Z,80.64
2022-08-26T17:28:26.250Z,81.05
2022-08-26T17:30:53.769Z,81.11
2022-08-26T17:33:22.163Z,81.53
2022-08-26T17:35:52.876Z,81.28
2022-08-26T17:38:21.644Z,81.50
2022-08-26T17:40:50.899Z,82.19
2022-08-26T17:43:18.996Z,82.08
2022-08-26T17:45:46.817Z,82.23
2022-08-26T17:48:14.761Z,82.32
2022-08-26T17:50:43.691Z,82.89
2022-08-26T17:53:18.768Z,82.80
2022-08-26T17:55:47.111Z,83.26
2022-08-26T17:58:16.135Z,83.55
2022-08-26T18:00:44.625Z,83.95
2022-08-26T18:03:12.221Z,84.01
2022-08-26T18:05:39.788Z,84.45
2022-08-26T18:08:07.319Z,84.03
2022-08-26T18:10:34.831Z,84.34
2022-08-26T18:13:02.421Z,84.56
2022-08-26T18:15:31.360Z,84.74
2022-08-26T18:17:58.928Z,85.51
2022-08-26T18:20:26.847Z,85.59
2022-08-26T18:22:54.864Z,85.82
2022-08-26T18:25:22.521Z,86.29
2022-08-26T18:27:49.979Z,86.52
2022-08-26T18:30:20.587Z,86.13
2022-08-26T18:32:49.764Z,86.18
2022-08-26T18:35:17.574Z,86.24
2022-08-26T18:37:45.562Z,86.10
2022-08-26T18:40:15.978Z,86.29
2022-08-26T18:42:43.868Z,86.81
2022-08-26T18:45:16.021Z,86.86
2022-08-26T18:47:43.962Z,87.00
2022-08-26T18:50:12.868Z,86.76
2022-08-26T18:52:41.082Z,86.46
2022-08-26T18:55:09.221Z,87.22
2022-08-26T18:57:37.163Z,87.13
2022-08-26T19:00:07.048Z,87.06
2022-08-26T19:02:35.083Z,86.59
2022-08-26T19:05:03.523Z,87.11
2022-08-26T19:07:35.489Z,86.23
2022-08-26T19:10:05.624Z,86.17
2022-08-26T19:12:35.279Z,86.54
2022-08-26T19:15:03.036Z,86.39
2022-08-26T19:17:30.483Z,86.32
2022-08-26T19:19:57.954Z,86.61
2022-08-26T19:22:25.433Z,87.12
2022-08-26T19:24:54.315Z,87.18
2022-08-26T19:27:21.756Z,87.28
2022-08-26T19:29:49.235Z,87.80
2022-08-26T19:32:17.485Z,87.91
2022-08-26T19:34:45.275Z,88.04
2022-08-26T19:37:12.729Z,87.78
2022-08-26T19:39:40.238Z,88.27
2022-08-26T19:42:09.132Z,88.22
2022-08-26T19:44:54.102Z,88.10
2022-08-26T19:47:21.893Z,88.22
2022-08-26T19:49:54.092Z,88.19
2022-08-26T19:52:22.500Z,88.39
2022-08-26T19:54:57.281Z,88.76
2022-08-26T19:57:26.138Z,88.81
2022-08-26T19:59:53.629Z,88.83
2022-08-26T20:02:21.195Z,88.88
2022-08-26T20:04:48.708Z,88.95
2022-08-26T20:07:18.914Z,88.96
2022-08-26T20:09:47.475Z,89.25
2022-08-26T20:12:15.770Z,89.29
2022-08-26T20:14:44.727Z,89.21
2022-08-26T20:17:12.508Z,89.54
2022-08-26T20:19:57.833Z,89.50
2022-08-26T20:22:25.703Z,89.07
2022-08-26T20:24:53.210Z,89.27
2022-08-26T20:27:27.273Z,89.26
2022-08-26T20:30:08.659Z,89.53
2022-08-26T20:32:36.228Z,89.43
2022-08-26T20:35:04.613Z,89.70
2022-08-26T20:37:32.064Z,89.46
2022-08-26T20:40:00.702Z,89.33
2022-08-26T20:42:28.618Z,89.38
2022-08-26T20:44:56.080Z,89.25
2022-08-26T20:47:24.865Z,89.31
2022-08-26T20:49:52.689Z,89.33
2022-08-26T20:52:20.503Z,89.77
2022-08-26T20:54:48.039Z,89.86
2022-08-26T20:57:15.496Z,89.63
2022-08-26T20:59:43.773Z,89.71
2022-08-26T21:02:11.266Z,89.85
2022-08-26T21:04:40.251Z,89.81
2022-08-26T21:07:07.735Z,90.14
2022-08-26T21:09:35.198Z,89.67
2022-08-26T21:12:03.009Z,89.59
2022-08-26T21:14:30.532Z,90.18
2022-08-26T21:16:58.114Z,90.18
2022-08-26T21:19:25.592Z,89.88
2022-08-26T21:21:54.449Z,90.60
2022-08-26T21:24:22.268Z,90.40
2022-08-26T21:26:49.772Z,90.35
2022-08-26T21:29:17.254Z,90.11
2022-08-26T21:31:46.407Z,90.30
2022-08-26T21:34:14.612Z,90.31
2022-08-26T21:36:42.089Z,90.50
2022-08-26T21:39:12.153Z,90.44
2022-08-26T21:41:41.044Z,90.77
2022-08-26T21:44:09.640Z,90.39
2022-08-26T21:46:37.440Z,90.54
2022-08-26T21:49:08.368Z,90.87
2022-08-26T21:51:37.615Z,90.88
2022-08-26T21:54:10.808Z,90.96
2022-08-26T21:56:41.893Z,91.07
2022-08-26T21:59:09.932Z,90.93
2022-08-26T22:01:37.673Z,91.12
2022-08-26T22:04:08.372Z,91.25
2022-08-26T22:06:41.855Z,91.47
2022-08-26T22:09:09.354Z,91.61
2022-08-26T22:11:37.057Z,91.65
2022-08-26T22:14:06.023Z,91.81
2022-08-26T22:16:33.553Z,91.78
2022-08-26T22:19:01.147Z,91.79
2022-08-26T22:21:29.064Z,91.82
2022-08-26T22:23:58.481Z,91.94
2022-08-26T22:26:28.592Z,91.26
2022-08-26T22:28:59.114Z,91.45
2022-08-26T22:31:37.114Z,91.57
2022-08-26T22:34:08.612Z,91.41
2022-08-26T22:36:42.864Z,90.98
2022-08-26T22:39:12.536Z,91.06
2022-08-26T22:41:40.104Z,90.75
2022-08-26T22:44:07.554Z,90.70
2022-08-26T22:46:38.494Z,91.42
2022-08-26T22:49:06.597Z,91.55
2022-08-26T22:51:34.495Z,90.24
2022-08-26T22:54:01.987Z,90.53
2022-08-26T22:56:29.851Z,91.06
2022-08-26T22:58:57.312Z,91.21
2022-08-26T23:01:24.834Z,91.23
2022-08-26T23:03:53.777Z,91.73
2022-08-26T23:06:21.327Z,91.58
2022-08-26T23:08:49.277Z,91.22
2022-08-26T23:11:17.265Z,91.59
2022-08-26T23:13:44.720Z,91.36
2022-08-26T23:16:13.784Z,91.46
2022-08-26T23:18:41.941Z,91.38
2022-08-26T23:21:11.807Z,91.34
2022-08-26T23:23:39.420Z,91.43
2022-08-26T23:26:07.861Z,92.21
2022-08-26T23:28:35.872Z,92.04
2022-08-26T23:31:03.371Z,91.69
2022-08-26T23:33:44.924Z,91.74
2022-08-26T23:36:17.580Z,91.75
2022-08-26T23:38:52.961Z,91.16
2022-08-26T23:41:20.923Z,91.32
2022-08-26T23:43:48.367Z,91.17
2022-08-26T23:46:16.063Z,91.41
2022-08-26T23:48:43.601Z,91.14
2022-08-26T23:51:28.933Z,90.42
2022-08-26T23:53:58.310Z,91.18
2022-08-26T23:56:26.726Z,91.26
2022-08-26T23:58:54.847Z,90.96
